Time;durP1;ratioP1;P1;durP2;ratioP2;P2;SDS_P1;SDS_P2;PMS_P1;PMS_P2;Temp;Humidity;BMP_temperature;BMP_pressure;BME280_temperature;BME280_humidity;BME280_pressure;Samples;Min_cycle;Max_cycle;Signal;HPM_P1;HPM_P2
2023/10/06 00:01:49;;;;;;;4.80;2.40;;;16.30;65.40;;;;;;4987773;28;20106;-50
2023/10/06 00:04:45;;;;;;;5.75;2.70;;;16.30;65.70;;;;;;4989488;28;20101;-49
2023/10/06 00:07:24;;;;;;;7.35;3.10;;;16.20;65.30;;;;;;4982026;28;20089;-55
2023/10/06 00:10:01;;;;;;;4.93;2.80;;;16.00;65.30;;;;;;4986215;28;20089;-50
2023/10/06 00:12:32;;;;;;;5.80;3.20;;;16.20;65.50;;;;;;4989412;28;20128;-51
2023/10/06 00:15:07;;;;;;;6.38;2.70;;;16.20;65.50;;;;;;4989590;28;20226;-52
2023/10/06 00:17:48;;;;;;;4.15;2.40;;;16.20;65.50;;;;;;4988925;28;20085;-50
2023/10/06 00:20:26;;;;;;;4.85;2.90;;;16.20;65.60;;;;;;4989612;28;20137;-49
2023/10/06 00:23:02;;;;;;;3.80;2.60;;;16.20;65.60;;;;;;4986500;28;20444;-50
2023/10/06 00:25:42;;;;;;;7.57;2.63;;;16.10;65.70;;;;;;4988068;28;20050;-49
2023/10/06 00:28:27;;;;;;;2.95;2.15;;;16.20;65.80;;;;;;4986388;28;20054;-51
2023/10/06 00:31:08;;;;;;;6.63;3.28;;;16.10;65.80;;;;;;4985645;28;20030;-49
2023/10/06 00:34:00;;;;;;;4.35;2.58;;;16.10;65.90;;;;;;4985031;28;20054;-50
2023/10/06 00:36:34;;;;;;;5.93;2.72;;;16.10;65.70;;;;;;4993926;28;20045;-50
2023/10/06 00:39:12;;;;;;;4.90;2.20;;;16.10;65.90;;;;;;4987377;28;20042;-53
2023/10/06 00:41:56;;;;;;;10.07;4.50;;;16.10;65.90;;;;;;4989713;28;20038;-53
2023/10/06 00:44:33;;;;;;;3.50;2.45;;;16.10;66.40;;;;;;4989624;28;20049;-48
2023/10/06 00:47:14;;;;;;;6.15;2.40;;;16.10;65.80;;;;;;4994496;28;20053;-50
2023/10/06 00:49:45;;;;;;;4.75;2.75;;;16.10;65.80;;;;;;4988257;28;20498;-48
2023/10/06 00:52:32;;;;;;;3.53;2.50;;;16.00;65.80;;;;;;4991506;28;20450;-51
2023/10/06 00:55:06;;;;;;;3.80;2.55;;;16.00;65.70;;;;;;4988889;28;20451;-51
2023/10/06 00:57:36;;;;;;;4.50;2.47;;;16.00;65.60;;;;;;4988773;28;20047;-51
2023/10/06 01:00:20;;;;;;;4.03;2.53;;;16.00;66.00;;;;;;4992702;28;20416;-51
2023/10/06 01:02:58;;;;;;;5.82;3.25;;;16.00;66.00;;;;;;4991494;28;20038;-49
2023/10/06 01:05:50;;;;;;;5.88;2.78;;;16.00;66.10;;;;;;4991047;28;20039;-50
2023/10/06 01:08:28;;;;;;;4.47;3.25;;;16.00;66.00;;;;;;4977888;28;20054;-55
2023/10/06 01:14:02;;;;;;;4.35;2.83;;;15.90;66.20;;;;;;4988248;28;20050;-49
2023/10/06 01:16:37;;;;;;;4.63;2.70;;;15.90;66.00;;;;;;4993798;28;20038;-49
2023/10/06 01:22:24;;;;;;;4.70;2.70;;;15.80;66.10;;;;;;4982704;28;20081;-49
2023/10/06 01:25:34;;;;;;;4.10;2.20;;;15.80;66.20;;;;;;4987825;28;20038;-54
2023/10/06 01:28:13;;;;;;;4.78;2.72;;;15.80;66.30;;;;;;4988633;28;20583;-53
2023/10/06 01:30:53;;;;;;;4.93;3.28;;;15.80;66.30;;;;;;4989284;28;20054;-49
2023/10/06 01:33:32;;;;;;;4.78;2.45;;;15.80;66.60;;;;;;4989129;28;20053;-50
2023/10/06 01:36:13;;;;;;;3.40;2.67;;;15.80;66.20;;;;;;4991843;28;20035;-49
2023/10/06 01:38:52;;;;;;;5.25;3.28;;;15.80;66.50;;;;;;4984002;28;20046;-53
2023/10/06 01:41:35;;;;;;;5.53;2.60;;;15.80;66.70;;;;;;4985825;28;20085;-51
2023/10/06 01:44:15;;;;;;;6.18;3.40;;;15.80;66.30;;;;;;4991893;28;20042;-51
2023/10/06 01:46:54;;;;;;;5.05;2.80;;;15.80;66.40;;;;;;4993017;28;20042;-52
2023/10/06 01:49:27;;;;;;;5.60;3.08;;;15.70;66.40;;;;;;4990488;28;20057;-52
2023/10/06 01:52:08;;;;;;;5.70;3.00;;;15.80;66.40;;;;;;4988851;28;20046;-48
2023/10/06 01:54:49;;;;;;;4.90;2.70;;;15.70;66.40;;;;;;4991946;28;20042;-52
2023/10/06 01:57:35;;;;;;;5.35;3.03;;;15.70;66.40;;;;;;4993366;28;20088;-49
2023/10/06 02:00:06;;;;;;;5.50;2.75;;;15.70;66.70;;;;;;4986460;28;20047;-48
2023/10/06 02:02:45;;;;;;;4.57;2.70;;;15.70;66.40;;;;;;4989215;28;20039;-54
2023/10/06 02:05:42;;;;;;;4.85;3.05;;;15.70;66.50;;;;;;4992236;28;20070;-54
2023/10/06 02:08:21;;;;;;;2.50;2.03;;;15.70;66.60;;;;;;4987539;28;20412;-50
2023/10/06 02:11:04;;;;;;;7.13;3.25;;;15.70;66.50;;;;;;5003938;28;20046;-53
2023/10/06 02:13:39;;;;;;;6.20;2.63;;;15.70;66.90;;;;;;4987025;28;20073;-52
2023/10/06 02:16:26;;;;;;;3.40;2.28;;;15.70;66.50;;;;;;4990073;28;20050;-51
2023/10/06 02:19:04;;;;;;;4.47;2.50;;;15.70;66.60;;;;;;4983868;28;20518;-50
2023/10/06 02:21:49;;;;;;;6.50;2.75;;;15.60;66.60;;;;;;4992024;28;20448;-53
2023/10/06 02:24:28;;;;;;;4.65;2.50;;;15.60;66.90;;;;;;4989953;28;20108;-50
2023/10/06 02:27:19;;;;;;;3.50;2.60;;;15.60;66.60;;;;;;4988046;28;20058;-52
2023/10/06 02:29:51;;;;;;;5.25;2.90;;;15.60;66.50;;;;;;4991535;28;20465;-49
2023/10/06 02:32:35;;;;;;;4.50;2.83;;;15.60;66.60;;;;;;4989978;28;20052;-51
2023/10/06 02:35:25;;;;;;;4.20;2.30;;;15.60;67.00;;;;;;4986349;28;20060;-50
2023/10/06 02:38:15;;;;;;;3.03;2.80;;;15.60;66.80;;;;;;4991851;28;20416;-54
2023/10/06 02:40:50;;;;;;;7.45;2.65;;;15.60;66.50;;;;;;4984378;28;20050;-51
2023/10/06 02:43:22;;;;;;;3.83;2.28;;;15.60;66.60;;;;;;4990839;28;20052;-50
2023/10/06 02:45:54;;;;;;;5.68;2.90;;;15.60;66.70;;;;;;4991886;28;20512;-51
2023/10/06 02:48:25;;;;;;;4.80;2.70;;;15.60;66.70;;;;;;4989478;28;20050;-52
2023/10/06 02:51:21;;;;;;;3.03;2.33;;;15.50;66.70;;;;;;4986800;28;20050;-54
2023/10/06 02:54:13;;;;;;;3.22;2.25;;;15.60;66.90;;;;;;4989368;28;20046;-51
2023/10/06 02:56:56;;;;;;;4.30;2.70;;;15.50;66.60;;;;;;4988567;28;20049;-52
2023/10/06 02:59:34;;;;;;;3.42;2.53;;;15.50;66.50;;;;;;4989708;28;20066;-52
2023/10/06 03:02:19;;;;;;;3.08;2.08;;;15.50;66.60;;;;;;4987968;28;20062;-53
2023/10/06 03:05:10;;;;;;;4.93;2.30;;;15.50;66.60;;;;;;4988667;28;20066;-49
2023/10/06 03:07:44;;;;;;;2.90;2.30;;;15.50;66.60;;;;;;4988715;28;20377;-51
2023/10/06 03:10:18;;;;;;;4.70;2.60;;;15.50;66.50;;;;;;4986144;28;20046;-49
2023/10/06 03:12:57;;;;;;;4.07;2.35;;;15.40;66.80;;;;;;5001461;28;20061;-53
2023/10/06 03:15:45;;;;;;;5.50;2.90;;;15.40;67.00;;;;;;4989078;28;20054;-50
2023/10/06 03:18:28;;;;;;;3.88;2.97;;;15.40;66.80;;;;;;4985902;28;20131;-52
2023/10/06 03:21:15;;;;;;;6.22;2.40;;;15.40;66.80;;;;;;4990726;28;20096;-49
2023/10/06 03:23:47;;;;;;;;;;;15.40;66.90;;;;;;4989237;28;20046;-53
2023/10/06 03:26:30;;;;;;;;;;;15.40;67.00;;;;;;4985849;28;20048;-49
2023/10/06 03:29:28;;;;;;;6.78;2.80;;;15.40;66.60;;;;;;4990822;28;19945;-50
2023/10/06 03:31:56;;;;;;;7.32;2.45;;;15.40;66.10;;;;;;4983495;28;20105;-52
2023/10/06 03:34:39;;;;;;;4.13;2.60;;;15.30;66.30;;;;;;4985878;28;20042;-53
2023/10/06 03:37:34;;;;;;;4.70;2.67;;;15.30;66.60;;;;;;4990506;28;20420;-52
2023/10/06 03:40:21;;;;;;;3.60;2.38;;;15.30;66.60;;;;;;4982373;28;20049;-52
2023/10/06 03:42:56;;;;;;;4.50;2.33;;;15.30;67.00;;;;;;4995630;28;20628;-53
2023/10/06 03:45:39;;;;;;;4.57;2.50;;;15.20;66.60;;;;;;4988517;28;20049;-49
2023/10/06 03:48:11;;;;;;;3.95;2.10;;;15.20;66.70;;;;;;4989876;28;20543;-53
2023/10/06 03:50:46;;;;;;;3.45;2.15;;;15.20;66.80;;;;;;4987796;28;20034;-53
2023/10/06 03:53:29;;;;;;;4.32;2.40;;;15.20;66.80;;;;;;4988487;28;20061;-49
2023/10/06 03:56:06;;;;;;;4.85;2.60;;;15.10;66.90;;;;;;4988817;28;20501;-53
2023/10/06 03:58:44;;;;;;;3.33;2.72;;;15.10;67.30;;;;;;4989038;28;20045;-55
2023/10/06 04:01:31;;;;;;;3.13;2.17;;;15.10;67.30;;;;;;4983618;28;20109;-52
2023/10/06 04:04:26;;;;;;;2.83;2.15;;;15.10;67.20;;;;;;4983885;28;20508;-52
2023/10/06 04:07:06;;;;;;;3.85;2.60;;;15.10;67.40;;;;;;4984699;28;20130;-48
2023/10/06 04:09:48;;;;;;;5.50;3.10;;;15.10;67.40;;;;;;4982784;28;20175;-50
2023/10/06 04:12:20;;;;;;;4.90;2.35;;;15.10;67.60;;;;;;4989128;28;20160;-48
2023/10/06 04:14:48;;;;;;;6.85;2.50;;;15.10;67.50;;;;;;4989269;28;20057;-53
2023/10/06 04:17:23;;;;;;;5.47;2.50;;;15.10;67.60;;;;;;4990423;28;20069;-54
2023/10/06 04:20:05;;;;;;;3.03;2.45;;;15.00;67.70;;;;;;4983267;28;20047;-52
2023/10/06 04:22:54;;;;;;;6.80;2.22;;;15.10;68.20;;;;;;4988460;28;20096;-52
2023/10/06 04:25:31;;;;;;;5.35;2.92;;;15.10;68.00;;;;;;4988197;28;20053;-49
2023/10/06 04:28:03;;;;;;;4.95;2.85;;;15.10;67.80;;;;;;4982009;28;20546;-49
2023/10/06 04:30:38;;;;;;;6.00;2.80;;;15.10;67.70;;;;;;4988760;28;20042;-48
2023/10/06 04:33:14;;;;;;;5.75;2.53;;;15.00;67.90;;;;;;4988503;28;20034;-52
2023/10/06 04:35:55;;;;;;;3.55;2.45;;;15.00;67.80;;;;;;4982818;28;20125;-49
2023/10/06 04:38:27;;;;;;;4.60;2.30;;;15.00;67.80;;;;;;4988765;28;20124;-53
2023/10/06 04:41:08;;;;;;;5.55;1.83;;;15.10;67.90;;;;;;4979025;28;20621;-52
2023/10/06 04:43:40;;;;;;;6.47;2.70;;;15.00;67.70;;;;;;4986402;28;20070;-49
2023/10/06 04:46:40;;;;;;;4.70;2.65;;;15.00;67.70;;;;;;4978385;28;20146;-50
2023/10/06 04:49:13;;;;;;;8.27;2.90;;;15.00;67.70;;;;;;4981920;28;20046;-50
2023/10/06 04:51:45;;;;;;;5.10;2.95;;;15.10;67.80;;;;;;4986573;28;20054;-49
2023/10/06 04:54:17;;;;;;;4.40;3.40;;;15.00;67.80;;;;;;4988031;28;20080;-49
2023/10/06 04:56:48;;;;;;;3.55;2.47;;;15.00;67.80;;;;;;4986086;28;20121;-50
2023/10/06 04:59:15;;;;;;;6.53;2.63;;;15.00;67.80;;;;;;4988059;28;20046;-51
2023/10/06 05:01:45;;;;;;;6.88;3.15;;;15.00;67.90;;;;;;4987987;28;20546;-52
2023/10/06 05:04:23;;;;;;;6.38;3.20;;;15.00;67.90;;;;;;4984702;28;20073;-50
2023/10/06 05:06:53;;;;;;;5.00;2.65;;;15.00;68.00;;;;;;4982736;28;20073;-52
2023/10/06 05:09:20;;;;;;;5.75;2.53;;;15.00;67.90;;;;;;4976013;28;20050;-49
2023/10/06 05:11:49;;;;;;;4.35;2.60;;;15.00;68.00;;;;;;4988053;28;20045;-51
2023/10/06 05:14:16;;;;;;;4.72;2.40;;;15.00;68.00;;;;;;4987810;28;20117;-48
2023/10/06 05:16:43;;;;;;;3.03;2.70;;;15.00;68.00;;;;;;4984675;28;20420;-48
2023/10/06 05:19:10;;;;;;;4.80;2.65;;;15.00;68.00;;;;;;4977986;28;20043;-51
2023/10/06 05:21:36;;;;;;;5.43;2.60;;;15.00;68.00;;;;;;4980384;28;20532;-51
2023/10/06 05:24:08;;;;;;;3.13;2.42;;;14.90;68.00;;;;;;4985065;28;20043;-53
2023/10/06 05:26:35;;;;;;;4.25;2.50;;;14.90;68.00;;;;;;4987004;28;20125;-49
2023/10/06 05:29:05;;;;;;;4.88;2.63;;;15.00;68.20;;;;;;4982270;28;20054;-50
2023/10/06 05:31:33;;;;;;;10.30;3.05;;;15.00;68.20;;;;;;4989183;28;20058;-49
2023/10/06 05:34:00;;;;;;;3.80;3.30;;;14.90;68.10;;;;;;4991607;28;20081;-51
2023/10/06 05:36:27;;;;;;;6.05;2.35;;;14.90;68.10;;;;;;4990255;28;20072;-52
2023/10/06 05:38:56;;;;;;;4.97;2.42;;;14.90;68.10;;;;;;5000126;28;20038;-53
2023/10/06 05:41:31;;;;;;;5.22;3.00;;;15.00;68.20;;;;;;4986761;28;20153;-49
2023/10/06 05:43:58;;;;;;;5.85;3.15;;;14.90;68.30;;;;;;4989840;28;20034;-51
2023/10/06 05:46:24;;;;;;;4.53;2.55;;;15.00;68.10;;;;;;4990288;28;20050;-49
2023/10/06 05:48:56;;;;;;;4.82;3.28;;;15.00;68.20;;;;;;4988229;28;20046;-52
2023/10/06 05:51:23;;;;;;;4.25;2.90;;;14.90;69.00;;;;;;4991456;28;20108;-48
2023/10/06 05:53:51;;;;;;;4.57;2.88;;;14.90;68.10;;;;;;4985527;28;20057;-49
2023/10/06 05:56:20;;;;;;;3.95;2.53;;;14.90;68.20;;;;;;4991315;28;20038;-49
2023/10/06 05:58:46;;;;;;;4.95;2.67;;;14.90;68.10;;;;;;4990857;28;20039;-53
2023/10/06 06:01:14;;;;;;;7.82;2.63;;;15.10;68.30;;;;;;4987469;28;20065;-50
2023/10/06 06:03:47;;;;;;;4.15;3.03;;;15.00;68.20;;;;;;4990741;28;20042;-53
2023/10/06 06:06:22;;;;;;;3.47;2.42;;;15.00;68.20;;;;;;4991163;28;20121;-49
2023/10/06 06:08:52;;;;;;;5.38;2.60;;;15.00;68.20;;;;;;4985122;28;20046;-53
2023/10/06 06:11:19;;;;;;;4.82;2.42;;;15.00;68.10;;;;;;4986934;28;20444;-53
2023/10/06 06:13:49;;;;;;;4.78;2.65;;;15.00;68.80;;;;;;4978573;28;20572;-49
2023/10/06 06:16:44;;;;;;;8.65;3.72;;;15.00;68.20;;;;;;4990931;28;20133;-48
2023/10/06 06:19:11;;;;;;;3.88;2.97;;;15.10;68.30;;;;;;4990753;28;20050;-50
2023/10/06 06:21:38;;;;;;;6.43;3.08;;;15.10;68.30;;;;;;4989005;28;20046;-52
2023/10/06 06:24:06;;;;;;;6.93;2.83;;;15.10;68.30;;;;;;4988226;28;20512;-53
2023/10/06 06:26:36;;;;;;;4.05;2.47;;;15.10;68.30;;;;;;4991979;28;20105;-53
2023/10/06 06:29:09;;;;;;;5.53;2.50;;;15.20;68.40;;;;;;4991235;28;20112;-49
2023/10/06 06:31:37;;;;;;;4.70;2.47;;;15.20;68.50;;;;;;4987517;28;20062;-49
2023/10/06 06:34:07;;;;;;;4.57;2.50;;;15.20;68.30;;;;;;4983162;28;20051;-49
2023/10/06 06:36:33;;;;;;;3.83;2.58;;;15.30;68.40;;;;;;4990972;28;20043;-51
2023/10/06 06:39:00;;;;;;;3.97;2.55;;;15.40;68.40;;;;;;4977257;28;20046;-48
2023/10/06 06:41:27;;;;;;;7.18;3.20;;;15.40;68.30;;;;;;4987971;28;20121;-50
2023/10/06 06:44:01;;;;;;;8.80;3.22;;;15.50;68.30;;;;;;4990409;28;20089;-51
2023/10/06 06:46:29;;;;;;;5.13;2.78;;;15.50;68.20;;;;;;4985508;28;20042;-53
2023/10/06 06:48:57;;;;;;;3.78;2.53;;;15.60;68.00;;;;;;4986924;28;20042;-52
2023/10/06 06:51:31;;;;;;;5.28;3.03;;;15.60;67.90;;;;;;4991277;28;20054;-51
2023/10/06 06:53:58;;;;;;;5.10;2.60;;;15.70;67.80;;;;;;4983148;28;20121;-51
2023/10/06 06:56:28;;;;;;;4.57;2.53;;;15.80;67.60;;;;;;4989485;28;20089;-52
2023/10/06 06:58:59;;;;;;;;;;;15.80;67.40;;;;;;4991185;28;20061;-53
2023/10/06 07:01:29;;;;;;;4.30;2.15;;;15.90;67.50;;;;;;4987090;28;20392;-53
2023/10/06 07:03:56;;;;;;;3.58;2.45;;;15.90;66.90;;;;;;4989906;28;20093;-53
2023/10/06 07:06:26;;;;;;;6.20;2.83;;;15.90;66.90;;;;;;4991358;28;20100;-53
2023/10/06 07:08:57;;;;;;;5.90;2.70;;;15.90;67.00;;;;;;4988378;28;20057;-51
2023/10/06 07:11:27;;;;;;;5.57;2.97;;;15.90;67.10;;;;;;5002060;28;20054;-52
2023/10/06 07:13:55;;;;;;;4.50;3.47;;;16.00;67.10;;;;;;4986542;28;20069;-52
2023/10/06 07:16:25;;;;;;;3.60;2.60;;;16.00;66.90;;;;;;4991068;28;20050;-53
2023/10/06 07:18:53;;;;;;;5.20;2.72;;;16.00;66.90;;;;;;4987666;28;20405;-53
2023/10/06 07:21:22;;;;;;;5.07;3.63;;;16.00;67.00;;;;;;4990420;28;20046;-50
2023/10/06 07:23:51;;;;;;;5.30;2.47;;;16.00;66.90;;;;;;4989480;28;20065;-52
2023/10/06 07:26:18;;;;;;;6.97;2.60;;;16.00;66.90;;;;;;4986511;28;20109;-52
2023/10/06 07:28:51;;;;;;;8.32;3.58;;;16.00;67.50;;;;;;4984820;28;20093;-48
2023/10/06 07:31:21;;;;;;;3.58;2.50;;;16.10;66.90;;;;;;4990902;28;20038;-48
2023/10/06 07:33:48;;;;;;;5.40;2.50;;;16.10;66.80;;;;;;4986099;28;20114;-52
2023/10/06 07:36:17;;;;;;;6.68;2.85;;;16.10;66.80;;;;;;4989911;28;20468;-53
2023/10/06 07:38:44;;;;;;;5.35;2.40;;;16.10;66.90;;;;;;4987596;28;20074;-49
2023/10/06 07:41:18;;;;;;;3.85;2.70;;;16.10;66.90;;;;;;4988898;28;20524;-53
2023/10/06 07:43:46;;;;;;;7.53;3.63;;;16.20;67.10;;;;;;4989293;28;20050;-52
2023/10/06 07:46:16;;;;;;;7.60;3.00;;;16.10;66.80;;;;;;4989542;28;20118;-52
2023/10/06 07:48:50;;;;;;;6.22;2.97;;;16.20;66.90;;;;;;4987638;28;20050;-51
2023/10/06 07:51:17;;;;;;;4.35;2.38;;;16.20;67.00;;;;;;4985620;28;20405;-54
2023/10/06 07:53:43;;;;;;;7.57;2.83;;;16.30;67.10;;;;;;4980225;28;20133;-54
2023/10/06 07:56:11;;;;;;;7.90;2.72;;;16.20;67.00;;;;;;4983147;28;20505;-50
2023/10/06 07:58:41;;;;;;;3.45;2.55;;;16.20;67.00;;;;;;4990142;28;20072;-54
2023/10/06 08:01:08;;;;;;;5.15;2.33;;;16.30;67.10;;;;;;4988215;28;20035;-53
2023/10/06 08:03:38;;;;;;;6.07;2.35;;;16.30;67.10;;;;;;4987369;28;20042;-51
2023/10/06 08:06:05;;;;;;;8.43;2.70;;;16.40;67.20;;;;;;4989827;28;20042;-51
2023/10/06 08:08:36;;;;;;;5.60;3.17;;;16.30;67.10;;;;;;4988072;28;20140;-52
2023/10/06 08:11:06;;;;;;;4.18;2.50;;;16.40;67.00;;;;;;4989505;28;20050;-49
2023/10/06 08:13:38;;;;;;;10.77;3.00;;;16.40;66.90;;;;;;4986470;28;20035;-54
2023/10/06 08:16:08;;;;;;;7.93;2.83;;;16.40;66.90;;;;;;4990072;28;20054;-52
2023/10/06 08:18:35;;;;;;;7.85;2.92;;;16.50;66.90;;;;;;4984692;28;20069;-54
2023/10/06 08:21:05;;;;;;;4.68;2.45;;;16.50;66.70;;;;;;4987861;28;20055;-49
2023/10/06 08:23:32;;;;;;;6.55;2.80;;;16.50;66.80;;;;;;4986004;28;20540;-50
2023/10/06 08:26:02;;;;;;;7.25;2.92;;;16.60;66.80;;;;;;4988050;28;20199;-52
2023/10/06 08:28:31;;;;;;;5.97;3.00;;;16.60;66.80;;;;;;4988189;28;20057;-52
2023/10/06 08:31:00;;;;;;;5.18;2.90;;;16.70;66.70;;;;;;4983084;28;20073;-49
2023/10/06 08:33:29;;;;;;;5.47;3.10;;;16.80;66.40;;;;;;4988914;28;20034;-52
2023/10/06 08:36:01;;;;;;;8.13;3.10;;;16.80;66.30;;;;;;4984935;28;20046;-52
2023/10/06 08:38:30;;;;;;;5.47;2.65;;;16.80;66.10;;;;;;4981266;28;20121;-52
2023/10/06 08:41:03;;;;;;;5.20;2.83;;;16.90;66.10;;;;;;4987454;28;20493;-48
2023/10/06 08:43:32;;;;;;;4.95;3.05;;;16.90;65.80;;;;;;4980834;28;20043;-53
2023/10/06 08:46:01;;;;;;;6.85;2.83;;;17.00;65.80;;;;;;4987804;28;20050;-53
2023/10/06 08:48:35;;;;;;;7.80;2.92;;;17.10;65.90;;;;;;4979669;28;20051;-52
2023/10/06 08:51:10;;;;;;;5.57;3.35;;;17.10;65.80;;;;;;4983898;28;20077;-50
2023/10/06 08:53:40;;;;;;;5.85;3.38;;;17.20;65.80;;;;;;4983298;28;20038;-52
2023/10/06 08:56:06;;;;;;;4.75;2.40;;;17.20;65.60;;;;;;4989296;28;20052;-50
2023/10/06 08:58:35;;;;;;;6.15;3.00;;;17.30;65.50;;;;;;4991540;28;20034;-53
2023/10/06 09:01:06;;;;;;;4.13;2.40;;;17.40;65.50;;;;;;4986401;28;20129;-50
2023/10/06 09:03:38;;;;;;;4.93;3.70;;;17.40;65.60;;;;;;4988321;28;20582;-52
2023/10/06 09:06:06;;;;;;;5.35;2.65;;;17.50;65.20;;;;;;4986675;28;20042;-52
2023/10/06 09:08:40;;;;;;;5.95;2.75;;;17.60;65.00;;;;;;4988890;28;20045;-52
2023/10/06 09:11:07;;;;;;;6.28;2.83;;;17.60;65.10;;;;;;4992075;28;20088;-53
2023/10/06 09:13:39;;;;;;;5.60;2.88;;;17.70;64.90;;;;;;4988783;28;20057;-51
2023/10/06 09:16:10;;;;;;;4.47;2.97;;;17.80;64.70;;;;;;4984591;28;20499;-52
2023/10/06 09:18:39;;;;;;;4.67;2.43;;;17.80;64.30;;;;;;4981463;28;20038;-53
2023/10/06 09:21:19;;;;;;;4.93;2.22;;;17.90;64.50;;;;;;4986547;28;20152;-50
2023/10/06 09:23:46;;;;;;;7.57;2.90;;;18.00;64.30;;;;;;4977786;28;20066;-51
2023/10/06 09:26:25;;;;;;;7.63;3.90;;;18.10;64.20;;;;;;4984475;28;20134;-49
2023/10/06 09:28:56;;;;;;;5.68;2.85;;;18.10;64.40;;;;;;4992100;28;20097;-50
2023/10/06 09:31:44;;;;;;;5.10;3.60;;;18.20;64.00;;;;;;4982491;28;20628;-50
2023/10/06 09:34:24;;;;;;;6.32;3.75;;;18.30;63.60;;;;;;4981597;28;20081;-51
2023/10/06 09:36:51;;;;;;;6.25;3.10;;;18.40;63.50;;;;;;4993147;28;20043;-52
2023/10/06 09:39:35;;;;;;;10.00;3.38;;;18.50;63.10;;;;;;4983550;28;20045;-48
2023/10/06 09:42:08;;;;;;;7.40;3.20;;;18.60;62.80;;;;;;4991384;28;20070;-50
2023/10/06 09:44:37;;;;;;;;;;;18.70;62.90;;;;;;4991921;28;20057;-49
2023/10/06 09:47:08;;;;;;;6.18;3.47;;;18.80;63.20;;;;;;4991489;28;19922;-52
2023/10/06 09:49:37;;;;;;;4.63;2.85;;;18.80;62.40;;;;;;4988676;28;20046;-53
2023/10/06 09:52:07;;;;;;;8.45;3.45;;;18.90;62.30;;;;;;4990723;28;20042;-52
2023/10/06 09:54:35;;;;;;;5.60;2.90;;;18.90;62.20;;;;;;4989589;28;20050;-53
2023/10/06 09:57:05;;;;;;;9.95;2.95;;;19.00;62.00;;;;;;4992655;28;20455;-52
2023/10/06 09:59:37;;;;;;;8.00;3.85;;;19.00;62.20;;;;;;4991563;28;20400;-50
2023/10/06 10:02:05;;;;;;;6.88;3.28;;;19.10;61.70;;;;;;4989039;28;20543;-49
2023/10/06 10:04:34;;;;;;;5.18;2.97;;;19.10;61.70;;;;;;4991477;28;20035;-52
2023/10/06 10:07:02;;;;;;;6.47;3.50;;;19.10;61.60;;;;;;4988462;28;20098;-52
2023/10/06 10:09:34;;;;;;;4.97;3.10;;;19.20;61.60;;;;;;4983933;28;20053;-52
2023/10/06 10:12:19;;;;;;;9.48;3.58;;;19.20;61.60;;;;;;4991202;28;20045;-51
2023/10/06 10:15:24;;;;;;;5.43;2.85;;;19.30;61.50;;;;;;4990152;28;20109;-51
2023/10/06 10:18:04;;;;;;;5.95;2.92;;;19.40;61.20;;;;;;4989165;28;20062;-52
2023/10/06 10:20:32;;;;;;;5.05;2.55;;;19.40;60.90;;;;;;4988253;28;20039;-48
2023/10/06 10:23:01;;;;;;;3.53;2.45;;;19.50;60.70;;;;;;4990977;28;20064;-53
2023/10/06 10:25:30;;;;;;;4.15;2.42;;;19.60;60.40;;;;;;4991893;28;20034;-55
2023/10/06 10:28:20;;;;;;;7.78;3.47;;;19.70;60.30;;;;;;4985981;28;20073;-51
2023/10/06 10:30:59;;;;;;;5.97;2.30;;;19.80;59.70;;;;;;4991179;28;20172;-48
2023/10/06 10:33:30;;;;;;;9.27;2.70;;;19.80;59.50;;;;;;4991580;28;20471;-54
2023/10/06 10:36:18;;;;;;;3.77;2.60;;;19.90;60.00;;;;;;4986987;28;20038;-53
2023/10/06 10:38:55;;;;;;;6.97;2.67;;;20.00;59.20;;;;;;4989079;28;20081;-49
2023/10/06 10:41:27;;;;;;;4.55;2.65;;;20.10;59.30;;;;;;4988211;28;20437;-49
2023/10/06 10:43:56;;;;;;;5.07;3.15;;;20.10;59.10;;;;;;4991000;28;20053;-50
2023/10/06 10:46:52;;;;;;;5.82;2.38;;;20.20;59.00;;;;;;4991862;28;20066;-53
2023/10/06 10:49:22;;;;;;;4.82;2.78;;;20.30;59.10;;;;;;4987279;28;20130;-54
2023/10/06 10:51:57;;;;;;;4.45;2.45;;;20.40;58.80;;;;;;4986502;28;20042;-53
2023/10/06 10:54:31;;;;;;;4.20;1.92;;;20.50;58.80;;;;;;4990883;28;20579;-49
2023/10/06 10:57:05;;;;;;;3.85;2.35;;;20.60;58.70;;;;;;4985361;28;20090;-53
2023/10/06 11:02:41;;;;;;;5.07;2.33;;;20.80;58.20;;;;;;4988196;28;20046;-50
2023/10/06 11:05:11;;;;;;;4.13;2.85;;;20.90;58.10;;;;;;4988460;28;20505;-49
2023/10/06 11:07:39;;;;;;;4.63;2.25;;;21.00;57.80;;;;;;4990551;28;20042;-54
2023/10/06 11:10:13;;;;;;;5.85;2.38;;;21.10;57.50;;;;;;4982867;28;20120;-49
2023/10/06 11:12:39;;;;;;;7.10;2.58;;;21.10;56.80;;;;;;4990702;28;20042;-51
2023/10/06 11:15:15;;;;;;;3.67;2.20;;;21.20;57.20;;;;;;4990516;28;20047;-53
2023/10/06 11:17:43;;;;;;;3.47;2.40;;;21.20;57.20;;;;;;4991470;28;20105;-51
2023/10/06 11:20:16;;;;;;;8.18;2.90;;;21.30;56.90;;;;;;4987300;28;20070;-49
2023/10/06 11:22:53;;;;;;;4.10;2.55;;;21.40;56.80;;;;;;4989937;28;20112;-53
2023/10/06 11:25:27;;;;;;;5.15;2.60;;;21.40;56.30;;;;;;4990499;28;20078;-52
2023/10/06 11:28:04;;;;;;;4.88;2.35;;;21.40;56.40;;;;;;4991478;28;20074;-50
2023/10/06 11:30:33;;;;;;;3.97;2.28;;;21.40;56.40;;;;;;4987646;28;20093;-49
2023/10/06 11:33:08;;;;;;;4.82;2.92;;;21.40;56.40;;;;;;4988702;28;20452;-53
2023/10/06 11:35:37;;;;;;;4.93;2.63;;;21.40;56.70;;;;;;4983146;28;20042;-50
2023/10/06 11:38:11;;;;;;;5.72;2.90;;;21.40;57.10;;;;;;4988783;28;20050;-53
2023/10/06 11:40:40;;;;;;;6.40;2.63;;;21.40;56.60;;;;;;4982675;28;20066;-52
2023/10/06 11:43:23;;;;;;;8.88;2.50;;;21.40;56.60;;;;;;4982412;28;20109;-52
2023/10/06 11:45:59;;;;;;;;;;;21.40;57.00;;;;;;4984859;28;20046;-52
2023/10/06 11:48:29;;;;;;;4.18;2.20;;;21.50;57.40;;;;;;4988497;28;20611;-53
2023/10/06 11:51:07;;;;;;;5.00;2.35;;;21.50;56.40;;;;;;4989926;28;20042;-53
2023/10/06 11:53:39;;;;;;;3.95;2.10;;;21.50;56.30;;;;;;4988215;28;20416;-49
2023/10/06 11:56:13;;;;;;;6.40;2.42;;;21.50;55.90;;;;;;4988009;28;20511;-53
2023/10/06 11:58:42;;;;;;;5.47;2.55;;;21.50;56.10;;;;;;4983011;28;20097;-50
2023/10/06 12:01:32;;;;;;;5.38;3.17;;;21.50;56.60;;;;;;4990373;28;20046;-51
2023/10/06 12:04:04;;;;;;;5.68;2.78;;;21.60;56.60;;;;;;4987877;28;20049;-50
2023/10/06 12:06:38;;;;;;;5.25;3.05;;;21.60;56.60;;;;;;4980845;28;20042;-52
2023/10/06 12:09:08;;;;;;;5.15;2.63;;;21.70;56.30;;;;;;4980618;28;20186;-53
2023/10/06 12:11:35;;;;;;;4.68;2.47;;;21.90;56.30;;;;;;4994630;28;20524;-49
2023/10/06 12:14:07;;;;;;;5.95;2.28;;;21.90;55.90;;;;;;4988832;28;20042;-53
2023/10/06 12:16:36;;;;;;;5.30;2.20;;;22.00;55.70;;;;;;4987402;28;20039;-51
2023/10/06 12:19:03;;;;;;;3.58;2.15;;;22.10;55.80;;;;;;4987268;28;20093;-51
2023/10/06 12:21:30;;;;;;;5.32;2.50;;;22.10;55.60;;;;;;4986634;28;20100;-52
2023/10/06 12:23:57;;;;;;;6.28;2.20;;;22.20;55.40;;;;;;4986749;28;20557;-52
2023/10/06 12:26:26;;;;;;;4.30;2.28;;;22.30;55.60;;;;;;4987038;28;20034;-52
2023/10/06 12:28:53;;;;;;;4.38;2.22;;;22.20;54.60;;;;;;4986021;28;20054;-53
2023/10/06 12:31:26;;;;;;;4.13;2.13;;;22.30;54.90;;;;;;4987466;28;20057;-53
2023/10/06 12:34:01;;;;;;;5.28;2.53;;;22.30;55.00;;;;;;4990765;28;20066;-53
2023/10/06 12:36:28;;;;;;;2.88;2.10;;;22.30;54.80;;;;;;4987339;28;20043;-53
2023/10/06 12:38:54;;;;;;;6.13;2.78;;;22.30;55.00;;;;;;4986902;28;20474;-52
2023/10/06 12:41:22;;;;;;;6.55;2.90;;;22.40;55.10;;;;;;4991966;28;20043;-53
2023/10/06 12:43:49;;;;;;;4.80;2.65;;;22.40;55.20;;;;;;4990739;28;20042;-50
2023/10/06 12:46:15;;;;;;;5.25;2.63;;;22.50;55.00;;;;;;4993328;28;20117;-53
2023/10/06 12:48:42;;;;;;;4.32;2.60;;;22.50;54.80;;;;;;4990788;28;20059;-51
2023/10/06 12:51:11;;;;;;;4.68;3.08;;;22.60;54.70;;;;;;4991501;28;20509;-51
2023/10/06 12:53:39;;;;;;;6.72;2.38;;;22.60;54.10;;;;;;4992804;28;20047;-49
2023/10/06 12:56:07;;;;;;;4.43;2.60;;;22.60;54.20;;;;;;4993045;28;20093;-52
2023/10/06 12:58:36;;;;;;;7.28;3.00;;;22.60;53.50;;;;;;4989319;28;20069;-49
2023/10/06 13:01:07;;;;;;;4.13;2.63;;;22.60;53.40;;;;;;4993795;28;20117;-53
2023/10/06 13:03:34;;;;;;;5.07;2.60;;;22.60;53.60;;;;;;4992933;28;20050;-50
2023/10/06 13:06:12;;;;;;;4.47;2.65;;;22.70;53.70;;;;;;4977851;28;20145;-53
2023/10/06 13:08:39;;;;;;;5.18;2.92;;;22.70;53.60;;;;;;4987816;28;20133;-50
2023/10/06 13:11:10;;;;;;;4.60;2.25;;;22.80;53.50;;;;;;4986739;28;20640;-53
2023/10/06 13:13:37;;;;;;;5.13;3.08;;;22.80;53.50;;;;;;4990024;28;20133;-50
2023/10/06 13:16:08;;;;;;;4.32;2.63;;;22.80;54.00;;;;;;4989523;28;20058;-51
2023/10/06 13:18:36;;;;;;;4.50;2.45;;;22.80;53.50;;;;;;4990100;28;20045;-54
2023/10/06 13:21:07;;;;;;;7.22;2.90;;;22.90;53.50;;;;;;4988768;28;20043;-51
2023/10/06 13:23:35;;;;;;;3.37;2.47;;;22.90;53.20;;;;;;4993343;28;20715;-49
2023/10/06 13:26:02;;;;;;;4.97;2.53;;;23.10;53.30;;;;;;4993047;28;20034;-50
2023/10/06 13:28:30;;;;;;;5.03;2.10;;;23.20;53.30;;;;;;4986284;28;20133;-53
2023/10/06 13:30:59;;;;;;;6.88;2.60;;;23.30;52.90;;;;;;4989548;28;20404;-53
2023/10/06 13:33:26;;;;;;;5.75;2.50;;;23.50;52.60;;;;;;4987937;28;20077;-48